sensor_id;sensor_type;location;lat;lon;timestamp;P1;durP1;ratioP1;P2;durP2;ratioP2
26822;SDS011;14852;51.910;8.878;2024-03-02T00:00:18;8.98;;;7.43;;
26822;SDS011;14852;51.910;8.878;2024-03-02T00:02:47;8.65;;;7.75;;
26822;SDS011;14852;51.910;8.878;2024-03-02T00:05:15;9.35;;;7.85;;
26822;SDS011;14852;51.910;8.878;2024-03-02T00:07:42;7.57;;;6.78;;
26822;SDS011;14852;51.910;8.878;2024-03-02T00:10:11;7.72;;;6.85;;
26822;SDS011;14852;51.910;8.878;2024-03-02T00:12:41;7.25;;;5.60;;
26822;SDS011;14852;51.910;8.878;2024-03-02T00:15:35;6.63;;;5.82;;
26822;SDS011;14852;51.910;8.878;2024-03-02T00:18:13;6.72;;;5.38;;
26822;SDS011;14852;51.910;8.878;2024-03-02T00:20:43;4.95;;;4.45;;
26822;SDS011;14852;51.910;8.878;2024-03-02T00:23:09;5.55;;;4.50;;
26822;SDS011;14852;51.910;8.878;2024-03-02T00:25:43;5.88;;;4.47;;
26822;SDS011;14852;51.910;8.878;2024-03-02T00:28:14;5.20;;;4.45;;
26822;SDS011;14852;51.910;8.878;2024-03-02T00:30:57;5.72;;;4.72;;
26822;SDS011;14852;51.910;8.878;2024-03-02T00:33:38;5.70;;;4.53;;
26822;SDS011;14852;51.910;8.878;2024-03-02T00:36:10;5.63;;;4.47;;
26822;SDS011;14852;51.910;8.878;2024-03-02T00:38:42;6.32;;;4.28;;
26822;SDS011;14852;51.910;8.878;2024-03-02T00:41:21;6.35;;;4.80;;
26822;SDS011;14852;51.910;8.878;2024-03-02T00:46:36;5.50;;;4.05;;
26822;SDS011;14852;51.910;8.878;2024-03-02T00:49:05;7.50;;;4.50;;
26822;SDS011;14852;51.910;8.878;2024-03-02T00:51:46;4.47;;;3.85;;
26822;SDS011;14852;51.910;8.878;2024-03-02T00:54:19;5.70;;;3.92;;
26822;SDS011;14852;51.910;8.878;2024-03-02T00:56:51;5.00;;;4.50;;
26822;SDS011;14852;51.910;8.878;2024-03-02T00:59:20;5.80;;;4.72;;
26822;SDS011;14852;51.910;8.878;2024-03-02T01:01:47;10.05;;;5.15;;
26822;SDS011;14852;51.910;8.878;2024-03-02T01:04:14;6.03;;;5.07;;
26822;SDS011;14852;51.910;8.878;2024-03-02T01:06:40;6.20;;;4.80;;
26822;SDS011;14852;51.910;8.878;2024-03-02T01:09:07;6.32;;;4.72;;
26822;SDS011;14852;51.910;8.878;2024-03-02T01:11:33;6.03;;;5.43;;
26822;SDS011;14852;51.910;8.878;2024-03-02T01:13:59;6.70;;;5.70;;
26822;SDS011;14852;51.910;8.878;2024-03-02T01:16:24;6.47;;;5.70;;
26822;SDS011;14852;51.910;8.878;2024-03-02T01:18:50;7.93;;;5.30;;
26822;SDS011;14852;51.910;8.878;2024-03-02T01:21:16;8.25;;;5.63;;
26822;SDS011;14852;51.910;8.878;2024-03-02T01:23:42;7.97;;;6.38;;
26822;SDS011;14852;51.910;8.878;2024-03-02T01:26:08;7.90;;;6.15;;
26822;SDS011;14852;51.910;8.878;2024-03-02T01:28:34;8.20;;;6.50;;
26822;SDS011;14852;51.910;8.878;2024-03-02T01:31:00;10.88;;;8.25;;
26822;SDS011;14852;51.910;8.878;2024-03-02T01:33:27;12.13;;;9.82;;
26822;SDS011;14852;51.910;8.878;2024-03-02T01:35:52;11.70;;;9.60;;
26822;SDS011;14852;51.910;8.878;2024-03-02T01:38:18;13.32;;;11.52;;
26822;SDS011;14852;51.910;8.878;2024-03-02T01:40:44;13.90;;;11.50;;
26822;SDS011;14852;51.910;8.878;2024-03-02T01:43:10;14.65;;;13.15;;
26822;SDS011;14852;51.910;8.878;2024-03-02T01:45:36;12.45;;;10.32;;
26822;SDS011;14852;51.910;8.878;2024-03-02T01:48:03;12.68;;;10.40;;
26822;SDS011;14852;51.910;8.878;2024-03-02T01:50:32;11.70;;;10.10;;
26822;SDS011;14852;51.910;8.878;2024-03-02T01:52:58;9.70;;;8.70;;
26822;SDS011;14852;51.910;8.878;2024-03-02T01:55:25;9.65;;;7.97;;
26822;SDS011;14852;51.910;8.878;2024-03-02T01:57:52;8.77;;;7.53;;
26822;SDS011;14852;51.910;8.878;2024-03-02T02:00:22;11.35;;;8.20;;
26822;SDS011;14852;51.910;8.878;2024-03-02T02:02:50;9.40;;;8.27;;
26822;SDS011;14852;51.910;8.878;2024-03-02T02:05:16;13.43;;;8.30;;
26822;SDS011;14852;51.910;8.878;2024-03-02T02:07:42;8.75;;;7.85;;
26822;SDS011;14852;51.910;8.878;2024-03-02T02:10:09;10.88;;;8.70;;
26822;SDS011;14852;51.910;8.878;2024-03-02T02:12:35;10.70;;;9.55;;
26822;SDS011;14852;51.910;8.878;2024-03-02T02:15:02;9.48;;;7.65;;
26822;SDS011;14852;51.910;8.878;2024-03-02T02:17:28;12.07;;;8.93;;
26822;SDS011;14852;51.910;8.878;2024-03-02T02:19:54;10.40;;;8.65;;
26822;SDS011;14852;51.910;8.878;2024-03-02T02:22:20;9.82;;;8.38;;
26822;SDS011;14852;51.910;8.878;2024-03-02T02:24:46;11.98;;;8.75;;
26822;SDS011;14852;51.910;8.878;2024-03-02T02:27:11;9.07;;;7.65;;
26822;SDS011;14852;51.910;8.878;2024-03-02T02:29:40;10.90;;;9.35;;
26822;SDS011;14852;51.910;8.878;2024-03-02T02:32:06;10.00;;;8.98;;
26822;SDS011;14852;51.910;8.878;2024-03-02T02:34:32;11.63;;;8.95;;
26822;SDS011;14852;51.910;8.878;2024-03-02T02:36:58;11.60;;;9.45;;
26822;SDS011;14852;51.910;8.878;2024-03-02T02:39:24;11.00;;;8.88;;
26822;SDS011;14852;51.910;8.878;2024-03-02T02:41:50;11.70;;;9.73;;
26822;SDS011;14852;51.910;8.878;2024-03-02T02:44:16;13.38;;;10.93;;
26822;SDS011;14852;51.910;8.878;2024-03-02T02:46:41;14.15;;;11.20;;
26822;SDS011;14852;51.910;8.878;2024-03-02T02:49:07;13.85;;;12.35;;
26822;SDS011;14852;51.910;8.878;2024-03-02T02:51:33;25.77;;;18.27;;
26822;SDS011;14852;51.910;8.878;2024-03-02T02:53:59;20.80;;;18.30;;
26822;SDS011;14852;51.910;8.878;2024-03-02T02:56:24;21.60;;;17.70;;
26822;SDS011;14852;51.910;8.878;2024-03-02T02:58:50;19.63;;;16.42;;
26822;SDS011;14852;51.910;8.878;2024-03-02T03:01:16;16.40;;;14.13;;
26822;SDS011;14852;51.910;8.878;2024-03-02T03:03:43;15.05;;;13.35;;
26822;SDS011;14852;51.910;8.878;2024-03-02T03:06:09;14.38;;;12.68;;
26822;SDS011;14852;51.910;8.878;2024-03-02T03:08:35;14.30;;;11.35;;
26822;SDS011;14852;51.910;8.878;2024-03-02T03:11:01;13.57;;;10.30;;
26822;SDS011;14852;51.910;8.878;2024-03-02T03:13:28;13.23;;;10.68;;
26822;SDS011;14852;51.910;8.878;2024-03-02T03:15:53;10.82;;;9.63;;
26822;SDS011;14852;51.910;8.878;2024-03-02T03:18:19;13.68;;;10.45;;
26822;SDS011;14852;51.910;8.878;2024-03-02T03:20:45;14.43;;;11.55;;
26822;SDS011;14852;51.910;8.878;2024-03-02T03:23:11;11.88;;;10.40;;
26822;SDS011;14852;51.910;8.878;2024-03-02T03:25:40;13.98;;;10.82;;
26822;SDS011;14852;51.910;8.878;2024-03-02T03:28:07;12.68;;;9.88;;
26822;SDS011;14852;51.910;8.878;2024-03-02T03:30:35;12.50;;;11.18;;
26822;SDS011;14852;51.910;8.878;2024-03-02T03:33:03;13.18;;;11.07;;
26822;SDS011;14852;51.910;8.878;2024-03-02T03:35:31;16.92;;;11.73;;
26822;SDS011;14852;51.910;8.878;2024-03-02T03:37:57;14.40;;;11.95;;
26822;SDS011;14852;51.910;8.878;2024-03-02T03:40:23;15.43;;;12.48;;
26822;SDS011;14852;51.910;8.878;2024-03-02T03:42:49;12.88;;;10.77;;
26822;SDS011;14852;51.910;8.878;2024-03-02T03:45:15;13.60;;;11.73;;
26822;SDS011;14852;51.910;8.878;2024-03-02T03:47:41;14.48;;;12.48;;
26822;SDS011;14852;51.910;8.878;2024-03-02T03:50:07;17.38;;;13.82;;
26822;SDS011;14852;51.910;8.878;2024-03-02T03:52:33;16.77;;;13.95;;
26822;SDS011;14852;51.910;8.878;2024-03-02T03:54:59;16.33;;;14.40;;
26822;SDS011;14852;51.910;8.878;2024-03-02T03:57:25;18.67;;;15.70;;
26822;SDS011;14852;51.910;8.878;2024-03-02T03:59:52;17.88;;;15.15;;
26822;SDS011;14852;51.910;8.878;2024-03-02T04:02:18;22.38;;;17.25;;
26822;SDS011;14852;51.910;8.878;2024-03-02T04:04:44;23.90;;;17.70;;
26822;SDS011;14852;51.910;8.878;2024-03-02T04:07:10;21.13;;;17.20;;
26822;SDS011;14852;51.910;8.878;2024-03-02T04:09:36;21.98;;;18.25;;
26822;SDS011;14852;51.910;8.878;2024-03-02T04:12:01;22.23;;;18.05;;
26822;SDS011;14852;51.910;8.878;2024-03-02T04:14:27;20.60;;;17.98;;
26822;SDS011;14852;51.910;8.878;2024-03-02T04:16:53;23.50;;;18.85;;
26822;SDS011;14852;51.910;8.878;2024-03-02T04:19:19;23.90;;;18.83;;
26822;SDS011;14852;51.910;8.878;2024-03-02T04:21:44;22.10;;;16.75;;
26822;SDS011;14852;51.910;8.878;2024-03-02T04:24:10;20.25;;;16.30;;
26822;SDS011;14852;51.910;8.878;2024-03-02T04:26:36;19.92;;;15.15;;
26822;SDS011;14852;51.910;8.878;2024-03-02T04:29:02;17.38;;;15.32;;
26822;SDS011;14852;51.910;8.878;2024-03-02T04:31:27;17.15;;;14.20;;
26822;SDS011;14852;51.910;8.878;2024-03-02T04:33:53;24.98;;;16.95;;
26822;SDS011;14852;51.910;8.878;2024-03-02T04:36:19;18.73;;;16.33;;
26822;SDS011;14852;51.910;8.878;2024-03-02T04:38:46;18.00;;;15.13;;
26822;SDS011;14852;51.910;8.878;2024-03-02T04:41:11;16.60;;;14.25;;
26822;SDS011;14852;51.910;8.878;2024-03-02T04:43:37;17.08;;;12.85;;
26822;SDS011;14852;51.910;8.878;2024-03-02T04:46:04;15.13;;;11.70;;
26822;SDS011;14852;51.910;8.878;2024-03-02T04:48:31;18.20;;;13.85;;
26822;SDS011;14852;51.910;8.878;2024-03-02T04:50:57;15.05;;;12.55;;
26822;SDS011;14852;51.910;8.878;2024-03-02T04:53:23;14.73;;;12.13;;
26822;SDS011;14852;51.910;8.878;2024-03-02T04:55:49;15.63;;;12.57;;
26822;SDS011;14852;51.910;8.878;2024-03-02T04:58:35;15.32;;;11.77;;
26822;SDS011;14852;51.910;8.878;2024-03-02T05:01:00;14.75;;;11.98;;
26822;SDS011;14852;51.910;8.878;2024-03-02T05:03:26;14.05;;;11.27;;
26822;SDS011;14852;51.910;8.878;2024-03-02T05:05:52;13.77;;;11.50;;
26822;SDS011;14852;51.910;8.878;2024-03-02T05:08:18;15.25;;;13.65;;
26822;SDS011;14852;51.910;8.878;2024-03-02T05:10:43;17.40;;;12.27;;
26822;SDS011;14852;51.910;8.878;2024-03-02T05:13:09;18.25;;;13.38;;
26822;SDS011;14852;51.910;8.878;2024-03-02T05:15:35;15.07;;;13.00;;
26822;SDS011;14852;51.910;8.878;2024-03-02T05:18:01;18.38;;;14.43;;
26822;SDS011;14852;51.910;8.878;2024-03-02T05:20:30;16.45;;;13.90;;
26822;SDS011;14852;51.910;8.878;2024-03-02T05:22:56;17.02;;;13.80;;
26822;SDS011;14852;51.910;8.878;2024-03-02T05:25:21;16.67;;;12.57;;
26822;SDS011;14852;51.910;8.878;2024-03-02T05:27:47;15.77;;;12.57;;
26822;SDS011;14852;51.910;8.878;2024-03-02T05:30:13;16.85;;;13.75;;
26822;SDS011;14852;51.910;8.878;2024-03-02T05:32:39;19.23;;;14.77;;
26822;SDS011;14852;51.910;8.878;2024-03-02T05:35:05;19.73;;;16.30;;
26822;SDS011;14852;51.910;8.878;2024-03-02T05:37:32;21.40;;;16.95;;
26822;SDS011;14852;51.910;8.878;2024-03-02T05:39:59;24.70;;;16.40;;
26822;SDS011;14852;51.910;8.878;2024-03-02T05:42:24;18.67;;;16.67;;
26822;SDS011;14852;51.910;8.878;2024-03-02T05:44:50;18.20;;;16.30;;
26822;SDS011;14852;51.910;8.878;2024-03-02T05:47:16;22.40;;;17.50;;
26822;SDS011;14852;51.910;8.878;2024-03-02T05:49:41;21.35;;;18.05;;
26822;SDS011;14852;51.910;8.878;2024-03-02T05:52:08;20.67;;;18.23;;
26822;SDS011;14852;51.910;8.878;2024-03-02T05:54:33;20.45;;;17.95;;
26822;SDS011;14852;51.910;8.878;2024-03-02T05:56:59;21.15;;;17.60;;
26822;SDS011;14852;51.910;8.878;2024-03-02T05:59:41;20.65;;;17.98;;
26822;SDS011;14852;51.910;8.878;2024-03-02T06:02:08;22.67;;;17.83;;
26822;SDS011;14852;51.910;8.878;2024-03-02T06:04:34;23.60;;;17.42;;
26822;SDS011;14852;51.910;8.878;2024-03-02T06:07:00;20.77;;;17.02;;
26822;SDS011;14852;51.910;8.878;2024-03-02T06:09:25;19.38;;;15.25;;
26822;SDS011;14852;51.910;8.878;2024-03-02T06:11:51;21.35;;;17.77;;
26822;SDS011;14852;51.910;8.878;2024-03-02T06:14:17;19.98;;;15.88;;
26822;SDS011;14852;51.910;8.878;2024-03-02T06:16:43;22.40;;;16.90;;
26822;SDS011;14852;51.910;8.878;2024-03-02T06:19:08;22.27;;;16.30;;
26822;SDS011;14852;51.910;8.878;2024-03-02T06:21:34;22.65;;;17.33;;
26822;SDS011;14852;51.910;8.878;2024-03-02T06:24:00;19.27;;;16.00;;
26822;SDS011;14852;51.910;8.878;2024-03-02T06:26:26;23.13;;;16.30;;
26822;SDS011;14852;51.910;8.878;2024-03-02T06:28:52;21.98;;;15.82;;
26822;SDS011;14852;51.910;8.878;2024-03-02T06:31:17;20.02;;;14.95;;
26822;SDS011;14852;51.910;8.878;2024-03-02T06:33:43;23.08;;;15.15;;
26822;SDS011;14852;51.910;8.878;2024-03-02T06:36:09;22.00;;;16.77;;
26822;SDS011;14852;51.910;8.878;2024-03-02T06:38:36;20.10;;;16.20;;
26822;SDS011;14852;51.910;8.878;2024-03-02T06:41:02;22.15;;;16.17;;
26822;SDS011;14852;51.910;8.878;2024-03-02T06:43:28;23.60;;;17.23;;
26822;SDS011;14852;51.910;8.878;2024-03-02T06:45:54;22.83;;;16.95;;
26822;SDS011;14852;51.910;8.878;2024-03-02T06:48:20;21.80;;;15.93;;
26822;SDS011;14852;51.910;8.878;2024-03-02T06:50:46;18.77;;;14.82;;
26822;SDS011;14852;51.910;8.878;2024-03-02T06:53:15;19.23;;;15.35;;
26822;SDS011;14852;51.910;8.878;2024-03-02T06:55:45;20.48;;;15.32;;
26822;SDS011;14852;51.910;8.878;2024-03-02T06:58:12;18.25;;;14.05;;
26822;SDS011;14852;51.910;8.878;2024-03-02T07:00:40;20.13;;;16.20;;
26822;SDS011;14852;51.910;8.878;2024-03-02T07:03:06;20.10;;;14.93;;
26822;SDS011;14852;51.910;8.878;2024-03-02T07:05:32;20.25;;;14.88;;
26822;SDS011;14852;51.910;8.878;2024-03-02T07:08:00;18.60;;;14.55;;
26822;SDS011;14852;51.910;8.878;2024-03-02T07:10:34;19.55;;;14.27;;
26822;SDS011;14852;51.910;8.878;2024-03-02T07:12:59;18.95;;;15.55;;
26822;SDS011;14852;51.910;8.878;2024-03-02T07:15:25;22.30;;;15.05;;
26822;SDS011;14852;51.910;8.878;2024-03-02T07:18:10;24.98;;;16.55;;
26822;SDS011;14852;51.910;8.878;2024-03-02T07:20:36;21.35;;;15.85;;
26822;SDS011;14852;51.910;8.878;2024-03-02T07:23:04;20.27;;;15.60;;
26822;SDS011;14852;51.910;8.878;2024-03-02T07:25:30;19.80;;;15.13;;
26822;SDS011;14852;51.910;8.878;2024-03-02T07:27:56;18.95;;;14.63;;
26822;SDS011;14852;51.910;8.878;2024-03-02T07:30:22;19.13;;;15.27;;
26822;SDS011;14852;51.910;8.878;2024-03-02T07:32:49;16.88;;;13.07;;
26822;SDS011;14852;51.910;8.878;2024-03-02T07:35:16;19.90;;;13.45;;
26822;SDS011;14852;51.910;8.878;2024-03-02T07:37:43;15.85;;;11.85;;
26822;SDS011;14852;51.910;8.878;2024-03-02T07:40:09;17.52;;;12.38;;
26822;SDS011;14852;51.910;8.878;2024-03-02T07:42:39;15.30;;;11.77;;
26822;SDS011;14852;51.910;8.878;2024-03-02T07:45:05;13.98;;;11.48;;
26822;SDS011;14852;51.910;8.878;2024-03-02T07:47:33;17.27;;;12.90;;
26822;SDS011;14852;51.910;8.878;2024-03-02T07:49:59;17.55;;;13.13;;
26822;SDS011;14852;51.910;8.878;2024-03-02T07:52:26;15.57;;;12.57;;
26822;SDS011;14852;51.910;8.878;2024-03-02T07:54:51;17.33;;;12.98;;
26822;SDS011;14852;51.910;8.878;2024-03-02T07:57:17;22.20;;;15.65;;
26822;SDS011;14852;51.910;8.878;2024-03-02T07:59:43;17.92;;;13.05;;
26822;SDS011;14852;51.910;8.878;2024-03-02T08:02:08;18.83;;;13.68;;
26822;SDS011;14852;51.910;8.878;2024-03-02T08:04:35;20.83;;;12.85;;
26822;SDS011;14852;51.910;8.878;2024-03-02T08:07:02;19.45;;;14.00;;
26822;SDS011;14852;51.910;8.878;2024-03-02T08:09:28;18.55;;;14.68;;
26822;SDS011;14852;51.910;8.878;2024-03-02T08:11:53;18.80;;;15.25;;
26822;SDS011;14852;51.910;8.878;2024-03-02T08:14:19;17.35;;;13.20;;
26822;SDS011;14852;51.910;8.878;2024-03-02T08:16:45;22.90;;;15.93;;
26822;SDS011;14852;51.910;8.878;2024-03-02T08:19:11;17.05;;;12.68;;
26822;SDS011;14852;51.910;8.878;2024-03-02T08:21:37;18.33;;;14.43;;
26822;SDS011;14852;51.910;8.878;2024-03-02T08:24:03;18.17;;;13.80;;
26822;SDS011;14852;51.910;8.878;2024-03-02T08:26:29;22.38;;;13.90;;
26822;SDS011;14852;51.910;8.878;2024-03-02T08:28:56;15.00;;;12.48;;
26822;SDS011;14852;51.910;8.878;2024-03-02T08:31:27;24.65;;;15.10;;
26822;SDS011;14852;51.910;8.878;2024-03-02T08:33:53;16.98;;;12.80;;
26822;SDS011;14852;51.910;8.878;2024-03-02T08:36:18;13.95;;;11.68;;
26822;SDS011;14852;51.910;8.878;2024-03-02T08:38:44;14.25;;;10.60;;
26822;SDS011;14852;51.910;8.878;2024-03-02T08:41:10;12.13;;;10.65;;
26822;SDS011;14852;51.910;8.878;2024-03-02T08:43:40;18.83;;;11.77;;
26822;SDS011;14852;51.910;8.878;2024-03-02T08:46:06;13.48;;;12.05;;
26822;SDS011;14852;51.910;8.878;2024-03-02T08:48:32;15.52;;;11.88;;
26822;SDS011;14852;51.910;8.878;2024-03-02T08:50:58;15.73;;;11.77;;
26822;SDS011;14852;51.910;8.878;2024-03-02T08:53:24;14.85;;;11.60;;
26822;SDS011;14852;51.910;8.878;2024-03-02T08:55:49;13.98;;;12.45;;
26822;SDS011;14852;51.910;8.878;2024-03-02T08:58:15;12.32;;;10.98;;
26822;SDS011;14852;51.910;8.878;2024-03-02T09:00:41;13.07;;;10.23;;
26822;SDS011;14852;51.910;8.878;2024-03-02T09:03:07;15.10;;;11.57;;
26822;SDS011;14852;51.910;8.878;2024-03-02T09:05:33;12.02;;;10.10;;
26822;SDS011;14852;51.910;8.878;2024-03-02T09:07:59;12.70;;;10.05;;
26822;SDS011;14852;51.910;8.878;2024-03-02T09:10:24;11.38;;;9.95;;
26822;SDS011;14852;51.910;8.878;2024-03-02T09:12:50;10.93;;;8.20;;
26822;SDS011;14852;51.910;8.878;2024-03-02T09:15:16;9.90;;;7.97;;
26822;SDS011;14852;51.910;8.878;2024-03-02T09:17:43;9.25;;;7.60;;
26822;SDS011;14852;51.910;8.878;2024-03-02T09:20:09;10.27;;;7.68;;
26822;SDS011;14852;51.910;8.878;2024-03-02T09:22:36;8.77;;;7.63;;
26822;SDS011;14852;51.910;8.878;2024-03-02T09:25:01;10.45;;;8.20;;
26822;SDS011;14852;51.910;8.878;2024-03-02T09:27:27;8.32;;;7.40;;
26822;SDS011;14852;51.910;8.878;2024-03-02T09:29:53;9.43;;;6.65;;
26822;SDS011;14852;51.910;8.878;2024-03-02T09:32:19;7.43;;;6.72;;
26822;SDS011;14852;51.910;8.878;2024-03-02T09:34:44;8.57;;;7.68;;
26822;SDS011;14852;51.910;8.878;2024-03-02T09:37:10;9.80;;;7.90;;
26822;SDS011;14852;51.910;8.878;2024-03-02T09:39:36;9.15;;;7.50;;
26822;SDS011;14852;51.910;8.878;2024-03-02T09:42:02;10.43;;;8.02;;
26822;SDS011;14852;51.910;8.878;2024-03-02T09:44:29;9.32;;;8.35;;
26822;SDS011;14852;51.910;8.878;2024-03-02T09:46:55;8.50;;;7.47;;
26822;SDS011;14852;51.910;8.878;2024-03-02T09:49:21;10.30;;;8.40;;
26822;SDS011;14852;51.910;8.878;2024-03-02T09:51:48;12.55;;;9.10;;
26822;SDS011;14852;51.910;8.878;2024-03-02T09:54:17;12.15;;;8.77;;
26822;SDS011;14852;51.910;8.878;2024-03-02T09:56:46;10.25;;;8.93;;
26822;SDS011;14852;51.910;8.878;2024-03-02T09:59:12;11.90;;;8.80;;
26822;SDS011;14852;51.910;8.878;2024-03-02T10:01:54;11.20;;;8.35;;
26822;SDS011;14852;51.910;8.878;2024-03-02T10:04:24;9.77;;;8.20;;
26822;SDS011;14852;51.910;8.878;2024-03-02T10:06:51;8.93;;;7.82;;
26822;SDS011;14852;51.910;8.878;2024-03-02T10:09:44;13.65;;;8.30;;
26822;SDS011;14852;51.910;8.878;2024-03-02T10:12:12;10.75;;;8.60;;
26822;SDS011;14852;51.910;8.878;2024-03-02T10:14:40;11.10;;;9.20;;
26822;SDS011;14852;51.910;8.878;2024-03-02T10:17:07;9.52;;;7.55;;
26822;SDS011;14852;51.910;8.878;2024-03-02T10:19:35;9.18;;;7.68;;
26822;SDS011;14852;51.910;8.878;2024-03-02T10:22:02;7.90;;;6.53;;
26822;SDS011;14852;51.910;8.878;2024-03-02T10:27:16;5.68;;;4.53;;
26822;SDS011;14852;51.910;8.878;2024-03-02T10:29:47;5.60;;;4.57;;
26822;SDS011;14852;51.910;8.878;2024-03-02T10:32:14;5.90;;;5.30;;
26822;SDS011;14852;51.910;8.878;2024-03-02T10:34:41;5.88;;;4.53;;
26822;SDS011;14852;51.910;8.878;2024-03-02T10:37:10;5.32;;;4.78;;
26822;SDS011;14852;51.910;8.878;2024-03-02T10:39:37;5.82;;;4.82;;
26822;SDS011;14852;51.910;8.878;2024-03-02T10:42:07;7.18;;;5.00;;
26822;SDS011;14852;51.910;8.878;2024-03-02T10:44:34;4.97;;;4.05;;
26822;SDS011;14852;51.910;8.878;2024-03-02T10:47:03;5.22;;;4.70;;
26822;SDS011;14852;51.910;8.878;2024-03-02T10:49:30;5.30;;;4.57;;
26822;SDS011;14852;51.910;8.878;2024-03-02T10:52:00;5.22;;;4.50;;
26822;SDS011;14852;51.910;8.878;2024-03-02T10:54:26;5.93;;;5.15;;
26822;SDS011;14852;51.910;8.878;2024-03-02T10:56:55;6.32;;;5.07;;
26822;SDS011;14852;51.910;8.878;2024-03-02T11:01:58;5.40;;;3.85;;
26822;SDS011;14852;51.910;8.878;2024-03-02T11:04:26;4.70;;;3.70;;
26822;SDS011;14852;51.910;8.878;2024-03-02T11:07:02;7.18;;;5.43;;
26822;SDS011;14852;51.910;8.878;2024-03-02T11:09:37;5.28;;;4.50;;
26822;SDS011;14852;51.910;8.878;2024-03-02T11:12:19;5.63;;;4.40;;
26822;SDS011;14852;51.910;8.878;2024-03-02T11:14:48;4.60;;;4.10;;
26822;SDS011;14852;51.910;8.878;2024-03-02T11:17:17;5.38;;;4.38;;
26822;SDS011;14852;51.910;8.878;2024-03-02T11:19:44;6.40;;;4.43;;
26822;SDS011;14852;51.910;8.878;2024-03-02T11:22:11;4.43;;;4.00;;
26822;SDS011;14852;51.910;8.878;2024-03-02T11:24:38;6.03;;;4.38;;
26822;SDS011;14852;51.910;8.878;2024-03-02T11:27:04;4.03;;;3.47;;
26822;SDS011;14852;51.910;8.878;2024-03-02T11:32:26;5.00;;;3.88;;
26822;SDS011;14852;51.910;8.878;2024-03-02T11:34:51;5.25;;;3.80;;
26822;SDS011;14852;51.910;8.878;2024-03-02T11:37:18;5.43;;;4.75;;
26822;SDS011;14852;51.910;8.878;2024-03-02T11:39:45;5.68;;;4.30;;
26822;SDS011;14852;51.910;8.878;2024-03-02T11:42:14;4.95;;;4.10;;
26822;SDS011;14852;51.910;8.878;2024-03-02T11:44:42;4.60;;;3.83;;
26822;SDS011;14852;51.910;8.878;2024-03-02T11:47:12;5.25;;;3.70;;
26822;SDS011;14852;51.910;8.878;2024-03-02T11:52:12;4.20;;;3.17;;
26822;SDS011;14852;51.910;8.878;2024-03-02T11:54:41;4.47;;;3.50;;
26822;SDS011;14852;51.910;8.878;2024-03-02T11:57:20;5.45;;;3.83;;
26822;SDS011;14852;51.910;8.878;2024-03-02T11:59:51;5.35;;;4.10;;
26822;SDS011;14852;51.910;8.878;2024-03-02T12:02:20;4.05;;;3.38;;
26822;SDS011;14852;51.910;8.878;2024-03-02T12:04:47;5.63;;;3.20;;
26822;SDS011;14852;51.910;8.878;2024-03-02T12:07:21;3.80;;;2.90;;
26822;SDS011;14852;51.910;8.878;2024-03-02T12:10:09;3.33;;;2.90;;
26822;SDS011;14852;51.910;8.878;2024-03-02T12:12:34;4.00;;;2.92;;
26822;SDS011;14852;51.910;8.878;2024-03-02T12:15:00;5.43;;;3.65;;
26822;SDS011;14852;51.910;8.878;2024-03-02T12:17:26;4.70;;;3.35;;
26822;SDS011;14852;51.910;8.878;2024-03-02T12:19:52;3.28;;;2.78;;
26822;SDS011;14852;51.910;8.878;2024-03-02T12:22:18;5.68;;;3.42;;
26822;SDS011;14852;51.910;8.878;2024-03-02T12:24:44;4.72;;;3.28;;
26822;SDS011;14852;51.910;8.878;2024-03-02T12:27:11;3.40;;;3.10;;
26822;SDS011;14852;51.910;8.878;2024-03-02T12:29:39;4.28;;;3.17;;
26822;SDS011;14852;51.910;8.878;2024-03-02T12:32:06;3.53;;;3.03;;
26822;SDS011;14852;51.910;8.878;2024-03-02T12:34:32;3.75;;;3.00;;
26822;SDS011;14852;51.910;8.878;2024-03-02T12:36:58;2.70;;;2.20;;
26822;SDS011;14852;51.910;8.878;2024-03-02T12:39:25;3.03;;;2.50;;
26822;SDS011;14852;51.910;8.878;2024-03-02T12:41:52;4.38;;;3.22;;
26822;SDS011;14852;51.910;8.878;2024-03-02T12:44:19;3.78;;;2.88;;
26822;SDS011;14852;51.910;8.878;2024-03-02T12:46:45;3.72;;;2.90;;
26822;SDS011;14852;51.910;8.878;2024-03-02T12:49:12;3.33;;;2.90;;
26822;SDS011;14852;51.910;8.878;2024-03-02T12:51:43;4.03;;;3.17;;
26822;SDS011;14852;51.910;8.878;2024-03-02T12:54:12;3.70;;;2.95;;
26822;SDS011;14852;51.910;8.878;2024-03-02T12:56:40;4.13;;;2.78;;
26822;SDS011;14852;51.910;8.878;2024-03-02T12:59:10;3.75;;;3.20;;
26822;SDS011;14852;51.910;8.878;2024-03-02T13:01:51;3.65;;;2.83;;
26822;SDS011;14852;51.910;8.878;2024-03-02T13:04:24;3.47;;;3.15;;
26822;SDS011;14852;51.910;8.878;2024-03-02T13:06:51;4.07;;;3.15;;
26822;SDS011;14852;51.910;8.878;2024-03-02T13:09:17;4.93;;;2.80;;
26822;SDS011;14852;51.910;8.878;2024-03-02T13:11:43;3.15;;;2.67;;
26822;SDS011;14852;51.910;8.878;2024-03-02T13:14:12;2.80;;;2.03;;
26822;SDS011;14852;51.910;8.878;2024-03-02T13:16:39;4.35;;;2.50;;
26822;SDS011;14852;51.910;8.878;2024-03-02T13:19:14;3.70;;;2.22;;
26822;SDS011;14852;51.910;8.878;2024-03-02T13:21:40;4.38;;;2.42;;
26822;SDS011;14852;51.910;8.878;2024-03-02T13:24:06;2.78;;;2.03;;
26822;SDS011;14852;51.910;8.878;2024-03-02T13:26:32;3.85;;;2.85;;
26822;SDS011;14852;51.910;8.878;2024-03-02T13:28:58;3.13;;;2.33;;
26822;SDS011;14852;51.910;8.878;2024-03-02T13:31:23;2.72;;;2.28;;
26822;SDS011;14852;51.910;8.878;2024-03-02T13:33:49;2.38;;;2.00;;
26822;SDS011;14852;51.910;8.878;2024-03-02T13:36:15;2.53;;;2.25;;
26822;SDS011;14852;51.910;8.878;2024-03-02T13:38:41;2.20;;;2.00;;
26822;SDS011;14852;51.910;8.878;2024-03-02T13:41:06;2.47;;;2.00;;
26822;SDS011;14852;51.910;8.878;2024-03-02T13:43:32;2.40;;;1.90;;
26822;SDS011;14852;51.910;8.878;2024-03-02T13:46:00;3.17;;;2.40;;
26822;SDS011;14852;51.910;8.878;2024-03-02T13:48:27;2.72;;;2.03;;
26822;SDS011;14852;51.910;8.878;2024-03-02T13:50:53;3.67;;;1.95;;
26822;SDS011;14852;51.910;8.878;2024-03-02T13:53:19;3.38;;;2.40;;
26822;SDS011;14852;51.910;8.878;2024-03-02T13:55:45;4.32;;;2.40;;
26822;SDS011;14852;51.910;8.878;2024-03-02T13:58:10;3.63;;;2.38;;
26822;SDS011;14852;51.910;8.878;2024-03-02T14:00:37;4.05;;;2.60;;
26822;SDS011;14852;51.910;8.878;2024-03-02T14:03:04;3.80;;;2.72;;
26822;SDS011;14852;51.910;8.878;2024-03-02T14:05:31;2.83;;;2.40;;
26822;SDS011;14852;51.910;8.878;2024-03-02T14:07:57;5.03;;;3.65;;
26822;SDS011;14852;51.910;8.878;2024-03-02T14:10:25;4.75;;;3.53;;
26822;SDS011;14852;51.910;8.878;2024-03-02T14:12:50;5.00;;;3.25;;
26822;SDS011;14852;51.910;8.878;2024-03-02T14:15:16;5.93;;;3.50;;
26822;SDS011;14852;51.910;8.878;2024-03-02T14:17:42;3.30;;;2.78;;
26822;SDS011;14852;51.910;8.878;2024-03-02T14:20:08;3.88;;;3.47;;
26822;SDS011;14852;51.910;8.878;2024-03-02T14:22:36;4.97;;;3.65;;
26822;SDS011;14852;51.910;8.878;2024-03-02T14:25:02;3.63;;;3.28;;
26822;SDS011;14852;51.910;8.878;2024-03-02T14:27:29;3.53;;;3.20;;
26822;SDS011;14852;51.910;8.878;2024-03-02T14:29:55;3.67;;;2.80;;
26822;SDS011;14852;51.910;8.878;2024-03-02T14:32:21;4.78;;;3.28;;
26822;SDS011;14852;51.910;8.878;2024-03-02T14:34:46;3.85;;;3.20;;
26822;SDS011;14852;51.910;8.878;2024-03-02T14:37:13;3.33;;;2.63;;
26822;SDS011;14852;51.910;8.878;2024-03-02T14:39:42;4.10;;;3.33;;
26822;SDS011;14852;51.910;8.878;2024-03-02T14:42:08;3.90;;;3.10;;
26822;SDS011;14852;51.910;8.878;2024-03-02T14:44:34;4.22;;;3.40;;
26822;SDS011;14852;51.910;8.878;2024-03-02T14:47:01;5.63;;;4.03;;